Orlando, Florida
Current Conditions -  °F | °C
As of 2:53 PM on Sunday 23 Nov 2014 (Local Time) from KORL Reporting Station
Few Clouds Few Clouds  
Wind Chill: 84°   Ceiling: Unl
Heat Index: 89°   Visibility: 10mi
Dew Point: 71°   Wind: 17mph
Humidity: 65%   Direction: 180°S
Pressure: 29.87"   Gusts: NA
Location:  28.54°N, 81.38°W
Report Text: KORL 231953Z 18015KT 10SM FEW040 29/22 A2987 RMK AO2 SLP119 T02890217
Loading
Personal Weather Stations






























Interactive Weather Map New forecast layout! Learn more

10-Day Weather Forecast

Advertisements
Track Severe Weather on mobile